createdAt,value
2022-08-23T00:02:23.033Z,98524.00
2022-08-23T00:05:07.444Z,98528.00
2022-08-23T00:07:42.674Z,98529.00
2022-08-23T00:10:17.661Z,98530.00
2022-08-23T00:12:57.658Z,98523.00
2022-08-23T00:15:30.672Z,98525.00
2022-08-23T00:18:03.698Z,98526.00
2022-08-23T00:20:30.642Z,98521.00
2022-08-23T00:23:03.682Z,98521.00
2022-08-23T00:25:36.657Z,98527.00
2022-08-23T00:28:03.899Z,98526.00
2022-08-23T00:30:45.664Z,98525.00
2022-08-23T00:33:18.657Z,98514.00
2022-08-23T00:35:45.566Z,98519.00
2022-08-23T00:38:34.272Z,98515.00
2022-08-23T00:41:08.698Z,98521.00
2022-08-23T00:43:39.288Z,98521.00
2022-08-23T00:46:34.689Z,98525.00
2022-08-23T00:49:02.428Z,98525.00
2022-08-23T00:51:52.800Z,98530.00
2022-08-23T00:54:22.292Z,98534.00
2022-08-23T00:56:55.691Z,98535.00
2022-08-23T00:59:22.619Z,98534.00
2022-08-23T01:01:55.757Z,98534.00
2022-08-23T01:04:22.679Z,98531.00
2022-08-23T01:07:16.693Z,98527.00
2022-08-23T01:09:43.622Z,98516.00
2022-08-23T01:12:30.389Z,98531.00
2022-08-23T01:15:11.686Z,98523.00
2022-08-23T01:17:54.117Z,98528.00
2022-08-23T01:20:29.692Z,98525.00
2022-08-23T01:23:08.649Z,98530.00
2022-08-23T01:25:41.714Z,98524.00
2022-08-23T01:28:08.723Z,98524.00
2022-08-23T01:30:42.730Z,98520.00
2022-08-23T01:33:09.666Z,98528.00
2022-08-23T01:35:47.720Z,98527.00
2022-08-23T01:38:14.810Z,98524.00
2022-08-23T01:40:48.703Z,98524.00
2022-08-23T01:43:16.206Z,98526.00
2022-08-23T01:45:49.726Z,98535.00
2022-08-23T01:48:17.142Z,98524.00
2022-08-23T01:50:50.718Z,98542.00
2022-08-23T01:53:17.640Z,98534.00
2022-08-23T01:55:44.523Z,98539.00
2022-08-23T01:58:17.730Z,98535.00
2022-08-23T02:00:44.676Z,98546.00
2022-08-23T02:03:17.759Z,98547.00
2022-08-23T02:05:44.701Z,98546.00
2022-08-23T02:08:11.671Z,98553.00
2022-08-23T02:10:44.726Z,98547.00
2022-08-23T02:13:11.808Z,98550.00
2022-08-23T02:15:44.723Z,98557.00
2022-08-23T02:18:18.747Z,98560.00
2022-08-23T02:20:49.111Z,98561.00
2022-08-23T02:23:22.735Z,98564.00
2022-08-23T02:25:50.686Z,98555.00
2022-08-23T02:28:19.116Z,98554.00
2022-08-23T02:30:52.761Z,98560.00
2022-08-23T02:33:19.878Z,98560.00
2022-08-23T02:35:53.741Z,98561.00
2022-08-23T02:38:26.770Z,98558.00
2022-08-23T02:41:00.821Z,98546.00
2022-08-23T02:43:38.253Z,98556.00
2022-08-23T02:46:07.619Z,98542.00
2022-08-23T02:48:41.741Z,98543.00
2022-08-23T02:51:17.758Z,98556.00
2022-08-23T02:53:44.829Z,98548.00
2022-08-23T02:56:21.694Z,98557.00
2022-08-23T02:58:56.749Z,98557.00
2022-08-23T03:01:32.160Z,98553.00
2022-08-23T03:04:05.816Z,98547.00
2022-08-23T03:06:32.697Z,98561.00
2022-08-23T03:09:06.754Z,98560.00
2022-08-23T03:11:33.809Z,98558.00
2022-08-23T03:14:06.784Z,98556.00
2022-08-23T03:16:33.775Z,98570.00
2022-08-23T03:19:06.787Z,98564.00
2022-08-23T03:21:33.697Z,98568.00
2022-08-23T03:24:10.248Z,98572.00
2022-08-23T03:26:37.644Z,98569.00
2022-08-23T03:29:10.816Z,98570.00
2022-08-23T03:31:37.783Z,98574.00
2022-08-23T03:34:11.823Z,98577.00
2022-08-23T03:36:38.942Z,98586.00
2022-08-23T03:39:06.279Z,98583.00
2022-08-23T03:41:42.772Z,98580.00
2022-08-23T03:44:09.690Z,98575.00
2022-08-23T03:46:42.777Z,98569.00
2022-08-23T03:49:09.700Z,98577.00
2022-08-23T03:51:42.775Z,98577.00
2022-08-23T03:54:09.715Z,98583.00
2022-08-23T03:56:46.815Z,98583.00
2022-08-23T03:59:13.735Z,98584.00
2022-08-23T04:01:46.891Z,98582.00
2022-08-23T04:04:13.855Z,98598.00
2022-08-23T04:06:46.817Z,98593.00
2022-08-23T04:09:14.605Z,98604.00
2022-08-23T04:11:48.807Z,98605.00
2022-08-23T04:14:15.840Z,98603.00
2022-08-23T04:16:48.855Z,98608.00
2022-08-23T04:19:16.887Z,98593.00
2022-08-23T04:21:55.804Z,98595.00
2022-08-23T04:24:22.744Z,98614.00
2022-08-23T04:26:49.756Z,98615.00
2022-08-23T04:29:33.918Z,98619.00
2022-08-23T04:32:02.940Z,98611.00
2022-08-23T04:34:38.840Z,98615.00
2022-08-23T04:37:09.332Z,98614.00
2022-08-23T04:39:46.858Z,98621.00
2022-08-23T04:42:24.859Z,98619.00
2022-08-23T04:44:51.821Z,98618.00
2022-08-23T04:47:18.749Z,98627.00
2022-08-23T04:49:51.835Z,98621.00
2022-08-23T04:52:19.599Z,98634.00
2022-08-23T04:54:46.864Z,98620.00
2022-08-23T04:57:19.882Z,98633.00
2022-08-23T04:59:46.837Z,98629.00
2022-08-23T05:02:19.858Z,98625.00
2022-08-23T05:04:46.773Z,98622.00
2022-08-23T05:07:19.874Z,98627.00
2022-08-23T05:09:58.812Z,98629.00
2022-08-23T05:12:31.837Z,98636.00
2022-08-23T05:14:58.734Z,98622.00
2022-08-23T05:17:31.848Z,98634.00
2022-08-23T05:19:58.722Z,98629.00
2022-08-23T05:22:31.889Z,98626.00
2022-08-23T05:24:58.800Z,98641.00
2022-08-23T05:27:31.918Z,98634.00
2022-08-23T05:29:58.826Z,98636.00
2022-08-23T05:32:33.627Z,98643.00
2022-08-23T05:35:00.797Z,98641.00
2022-08-23T05:37:33.878Z,98635.00
2022-08-23T05:40:00.903Z,98633.00
2022-08-23T05:42:34.148Z,98636.00
2022-08-23T05:45:07.872Z,98636.00
2022-08-23T05:47:34.857Z,98588.00
2022-08-23T05:50:08.895Z,98644.00
2022-08-23T05:52:42.896Z,98650.00
2022-08-23T05:55:09.918Z,98556.00
2022-08-23T05:57:43.880Z,98599.00
2022-08-23T06:00:11.646Z,98512.00
2022-08-23T06:02:38.621Z,98525.00
2022-08-23T06:05:12.890Z,98524.00
2022-08-23T06:07:47.027Z,98537.00
2022-08-23T06:10:22.883Z,98538.00
2022-08-23T06:12:49.767Z,98539.00
2022-08-23T06:15:16.802Z,98546.00
2022-08-23T06:17:49.881Z,98553.00
2022-08-23T06:20:16.891Z,98557.00
2022-08-23T06:22:49.927Z,98570.00
2022-08-23T06:25:16.882Z,98584.00
2022-08-23T06:27:43.755Z,98587.00
2022-08-23T06:30:17.897Z,98594.00
2022-08-23T06:32:45.100Z,98607.00
2022-08-23T06:35:39.390Z,98611.00
2022-08-23T06:38:11.937Z,98623.00
2022-08-23T06:40:38.950Z,98626.00
2022-08-23T06:43:11.922Z,98626.00
2022-08-23T06:45:38.835Z,98631.00
2022-08-23T06:48:18.294Z,98636.00
2022-08-23T06:50:47.874Z,98645.00
2022-08-23T06:53:20.925Z,98646.00
2022-08-23T06:55:47.849Z,98658.00
2022-08-23T06:58:20.925Z,98656.00
2022-08-23T07:00:47.864Z,98662.00
2022-08-23T07:03:20.922Z,98667.00
2022-08-23T07:05:47.965Z,98673.00
2022-08-23T07:08:20.930Z,98677.00
2022-08-23T07:10:53.942Z,98683.00
2022-08-23T07:13:26.993Z,98689.00
2022-08-23T07:15:59.607Z,98692.00
2022-08-23T07:18:33.175Z,98691.00
2022-08-23T07:21:07.938Z,98698.00
2022-08-23T07:23:46.022Z,98702.00
2022-08-23T07:26:15.862Z,98705.00
2022-08-23T07:28:49.961Z,98703.00
2022-08-23T07:31:23.001Z,98710.00
2022-08-23T07:33:50.120Z,98704.00
2022-08-23T07:36:24.965Z,98720.00
2022-08-23T07:38:52.002Z,98705.00
2022-08-23T07:41:25.979Z,98718.00
2022-08-23T07:43:52.854Z,98712.00
2022-08-23T07:46:26.041Z,98722.00
2022-08-23T07:48:54.797Z,98731.00
2022-08-23T07:51:29.008Z,98724.00
2022-08-23T07:53:55.935Z,98726.00
2022-08-23T07:56:29.007Z,98729.00
2022-08-23T07:58:56.012Z,98726.00
2022-08-23T08:01:25.859Z,98736.00
2022-08-23T08:04:00.985Z,98720.00
2022-08-23T08:06:34.137Z,98735.00
2022-08-23T08:09:07.990Z,98736.00
2022-08-23T08:11:35.713Z,98733.00
2022-08-23T08:14:13.966Z,98734.00
2022-08-23T08:16:52.992Z,98737.00
2022-08-23T08:19:19.980Z,98734.00
2022-08-23T08:21:54.010Z,98739.00
2022-08-23T08:24:26.998Z,98740.00
2022-08-23T08:26:53.875Z,98750.00
2022-08-23T08:29:27.012Z,98742.00
2022-08-23T08:31:54.546Z,98750.00
2022-08-23T08:34:28.024Z,98756.00
2022-08-23T08:36:58.338Z,98750.00
2022-08-23T08:39:39.012Z,98741.00
2022-08-23T08:42:34.433Z,98745.00
2022-08-23T08:45:18.023Z,98754.00
2022-08-23T08:48:02.145Z,98758.00
2022-08-23T08:50:43.087Z,98757.00
2022-08-23T08:53:42.017Z,98760.00
2022-08-23T08:56:32.768Z,98769.00
2022-08-23T08:59:12.015Z,98771.00
2022-08-23T09:01:39.103Z,98766.00
2022-08-23T09:04:13.026Z,98762.00
2022-08-23T09:07:08.057Z,98769.00
2022-08-23T09:10:03.962Z,98773.00
2022-08-23T09:13:21.030Z,98772.00
2022-08-23T09:16:12.172Z,98774.00
2022-08-23T09:18:39.103Z,98773.00
2022-08-23T09:21:14.059Z,98773.00
2022-08-23T09:23:43.662Z,98771.00
2022-08-23T09:26:33.024Z,98771.00
2022-08-23T09:29:32.393Z,98770.00
2022-08-23T09:32:08.042Z,98773.00
2022-08-23T09:34:42.288Z,98774.00
2022-08-23T09:37:29.077Z,98777.00
2022-08-23T09:40:33.081Z,98781.00
2022-08-23T09:43:20.103Z,98786.00
2022-08-23T09:45:56.081Z,98778.00
2022-08-23T09:48:50.082Z,98780.00
2022-08-23T09:51:42.811Z,98782.00
2022-08-23T09:54:44.229Z,98782.00
2022-08-23T09:57:21.102Z,98783.00
2022-08-23T09:59:48.599Z,98782.00
2022-08-23T10:02:28.088Z,98786.00
2022-08-23T10:05:23.060Z,98785.00
2022-08-23T10:08:00.989Z,98783.00
2022-08-23T10:10:55.086Z,98788.00
2022-08-23T10:13:28.090Z,98791.00
2022-08-23T10:16:16.786Z,98792.00
2022-08-23T10:19:33.111Z,98793.00
2022-08-23T10:22:12.115Z,98792.00
2022-08-23T10:24:50.262Z,98791.00
2022-08-23T10:27:45.114Z,98793.00
2022-08-23T10:31:11.806Z,98788.00
2022-08-23T10:33:48.116Z,98779.00
2022-08-23T10:36:30.663Z,98777.00
2022-08-23T10:39:06.119Z,98782.00
2022-08-23T10:42:15.837Z,98784.00
2022-08-23T10:45:35.142Z,98783.00
2022-08-23T10:48:27.122Z,98778.00
2022-08-23T10:51:07.530Z,98779.00
2022-08-23T10:53:50.131Z,98772.00
2022-08-23T10:56:17.934Z,98764.00
2022-08-23T10:59:09.136Z,98761.00
2022-08-23T11:02:32.676Z,98766.00
2022-08-23T11:05:33.131Z,98767.00
2022-08-23T11:08:03.964Z,98754.00
2022-08-23T11:10:56.207Z,98754.00
2022-08-23T11:13:32.867Z,98751.00
2022-08-23T11:16:29.146Z,98751.00
2022-08-23T11:19:02.145Z,98739.00
2022-08-23T11:21:37.920Z,98748.00
2022-08-23T11:24:11.134Z,98744.00
2022-08-23T11:26:37.942Z,98747.00
2022-08-23T11:29:14.141Z,98749.00
2022-08-23T11:31:54.167Z,98744.00
2022-08-23T11:34:31.437Z,98739.00
2022-08-23T11:37:26.180Z,98740.00
2022-08-23T11:39:59.176Z,98742.00
2022-08-23T11:42:56.162Z,98740.00
2022-08-23T11:45:44.983Z,98738.00
2022-08-23T11:48:27.190Z,98736.00
2022-08-23T11:51:25.695Z,98734.00
2022-08-23T11:54:19.182Z,98730.00
2022-08-23T11:57:22.810Z,98738.00
2022-08-23T12:00:57.184Z,98738.00
2022-08-23T12:03:37.338Z,98738.00
2022-08-23T12:06:13.087Z,98728.00
2022-08-23T12:09:00.201Z,98729.00
2022-08-23T12:11:56.036Z,98740.00
2022-08-23T12:14:38.182Z,98735.00
2022-08-23T12:17:16.912Z,98731.00
2022-08-23T12:20:03.224Z,98732.00
2022-08-23T12:23:13.215Z,98728.00
2022-08-23T12:25:40.278Z,98727.00
2022-08-23T12:28:38.210Z,98731.00
2022-08-23T12:31:39.254Z,98728.00
2022-08-23T12:35:03.222Z,98729.00
2022-08-23T12:37:35.555Z,98729.00
2022-08-23T12:40:15.250Z,98715.00
2022-08-23T12:42:48.237Z,98728.00
2022-08-23T12:45:21.506Z,98723.00
2022-08-23T12:48:07.216Z,98718.00
2022-08-23T12:50:40.251Z,98725.00
2022-08-23T12:53:17.236Z,98715.00
2022-08-23T12:55:50.824Z,98708.00
2022-08-23T12:58:33.666Z,98720.00
2022-08-23T13:01:04.687Z,98723.00
2022-08-23T13:03:45.236Z,98725.00
2022-08-23T13:06:15.181Z,98713.00
2022-08-23T13:08:56.245Z,98715.00
2022-08-23T13:11:24.930Z,98722.00
2022-08-23T13:13:58.239Z,98715.00
2022-08-23T13:16:43.348Z,98719.00
2022-08-23T13:19:36.242Z,98711.00
2022-08-23T13:22:19.071Z,98718.00
2022-08-23T13:25:28.596Z,98712.00
2022-08-23T13:27:59.714Z,98704.00
2022-08-23T13:30:39.303Z,98696.00
2022-08-23T13:33:15.881Z,98701.00
2022-08-23T13:35:58.239Z,98704.00
2022-08-23T13:38:38.244Z,98703.00
2022-08-23T13:41:10.360Z,98693.00
2022-08-23T13:43:54.267Z,98696.00
2022-08-23T13:46:35.386Z,98693.00
2022-08-23T13:49:21.961Z,98697.00
2022-08-23T13:52:37.919Z,98692.00
2022-08-23T13:54:54.130Z,98680.00
2022-08-23T13:57:30.055Z,98691.00
2022-08-23T13:59:57.890Z,98685.00
2022-08-23T14:02:31.282Z,98678.00
2022-08-23T14:04:58.208Z,98678.00
2022-08-23T14:07:31.304Z,98685.00
2022-08-23T14:09:58.174Z,98686.00
2022-08-23T14:12:28.216Z,98682.00
2022-08-23T14:15:05.288Z,98683.00
2022-08-23T14:17:43.300Z,98678.00
2022-08-23T14:20:33.976Z,98674.00
2022-08-23T14:23:05.919Z,98667.00
2022-08-23T14:25:45.833Z,98672.00
2022-08-23T14:28:19.299Z,98674.00
2022-08-23T14:30:46.217Z,98672.00
2022-08-23T14:33:13.161Z,98677.00
2022-08-23T14:35:46.339Z,98666.00
2022-08-23T14:38:13.225Z,98670.00
2022-08-23T14:40:46.342Z,98669.00
2022-08-23T14:43:13.256Z,98667.00
2022-08-23T14:45:46.314Z,98664.00
2022-08-23T14:48:13.356Z,98671.00
2022-08-23T14:50:47.306Z,98662.00
2022-08-23T14:53:14.924Z,98663.00
2022-08-23T14:55:48.366Z,98659.00
2022-08-23T14:58:15.982Z,98671.00
2022-08-23T15:00:43.371Z,98671.00
2022-08-23T15:03:16.330Z,98665.00
2022-08-23T15:05:44.002Z,98677.00
2022-08-23T15:08:17.327Z,98668.00
2022-08-23T15:10:51.316Z,98667.00
2022-08-23T15:13:33.242Z,98671.00
2022-08-23T15:16:07.336Z,98680.00
2022-08-23T15:18:41.320Z,98669.00
2022-08-23T15:21:08.220Z,98661.00
2022-08-23T15:23:35.120Z,98670.00
2022-08-23T15:26:08.357Z,98657.00
2022-08-23T15:28:41.388Z,98672.00
2022-08-23T15:31:14.423Z,98663.00
2022-08-23T15:33:48.025Z,98656.00
2022-08-23T15:36:22.344Z,98652.00
2022-08-23T15:38:50.807Z,98651.00
2022-08-23T15:41:26.350Z,98653.00
2022-08-23T15:43:53.226Z,98656.00
2022-08-23T15:46:28.394Z,98665.00
2022-08-23T15:49:11.517Z,98652.00
2022-08-23T15:51:45.418Z,98656.00
2022-08-23T15:54:12.319Z,98662.00
2022-08-23T15:56:52.372Z,98656.00
2022-08-23T15:59:19.505Z,98652.00
2022-08-23T16:01:53.534Z,98656.00
2022-08-23T16:04:20.515Z,98657.00
2022-08-23T16:06:47.474Z,98656.00
2022-08-23T16:09:30.363Z,98653.00
2022-08-23T16:12:00.245Z,98653.00
2022-08-23T16:14:33.385Z,98670.00
2022-08-23T16:17:00.894Z,98668.00
2022-08-23T16:19:34.402Z,98668.00
2022-08-23T16:22:01.462Z,98670.00
2022-08-23T16:24:35.394Z,98668.00
2022-08-23T16:27:02.282Z,98676.00
2022-08-23T16:29:29.186Z,98660.00
2022-08-23T16:32:02.444Z,98670.00
2022-08-23T16:34:29.359Z,98672.00
2022-08-23T16:37:06.600Z,98675.00
2022-08-23T16:39:33.783Z,98674.00
2022-08-23T16:42:03.960Z,98672.00
2022-08-23T16:44:38.406Z,98679.00
2022-08-23T16:47:13.412Z,98674.00
2022-08-23T16:49:40.362Z,98681.00
2022-08-23T16:52:07.254Z,98677.00
2022-08-23T16:54:40.419Z,98674.00
2022-08-23T16:57:07.325Z,98677.00
2022-08-23T16:59:37.244Z,98681.00
2022-08-23T17:02:13.421Z,98675.00
2022-08-23T17:04:40.392Z,98676.00
2022-08-23T17:07:13.417Z,98689.00
2022-08-23T17:09:46.438Z,98690.00
2022-08-23T17:12:13.728Z,98693.00
2022-08-23T17:14:47.422Z,98689.00
2022-08-23T17:17:14.384Z,98690.00
2022-08-23T17:19:48.441Z,98687.00
2022-08-23T17:22:21.421Z,98682.00
2022-08-23T17:24:48.308Z,98692.00
2022-08-23T17:27:26.425Z,98686.00
2022-08-23T17:29:54.812Z,98692.00
2022-08-23T17:32:28.435Z,98685.00
2022-08-23T17:34:55.312Z,98691.00
2022-08-23T17:37:28.454Z,98689.00
2022-08-23T17:40:01.510Z,98701.00
2022-08-23T17:42:28.419Z,98697.00
2022-08-23T17:45:01.482Z,98700.00
2022-08-23T17:47:29.288Z,98698.00
2022-08-23T17:50:02.454Z,98704.00
2022-08-23T17:52:29.897Z,98704.00
2022-08-23T17:55:03.466Z,98707.00
2022-08-23T17:57:36.467Z,98709.00
2022-08-23T18:00:06.368Z,98719.00
2022-08-23T18:02:39.487Z,98721.00
2022-08-23T18:05:06.812Z,98729.00
2022-08-23T18:07:40.477Z,98735.00
2022-08-23T18:10:08.229Z,98722.00
2022-08-23T18:12:41.471Z,98726.00
2022-08-23T18:15:15.302Z,98731.00
2022-08-23T18:17:48.509Z,98731.00
2022-08-23T18:20:18.669Z,98734.00
2022-08-23T18:22:45.542Z,98731.00
2022-08-23T18:25:19.486Z,98744.00
2022-08-23T18:27:46.406Z,98754.00
2022-08-23T18:30:19.472Z,98750.00
2022-08-23T18:32:53.492Z,98750.00
2022-08-23T18:35:21.279Z,98755.00
2022-08-23T18:37:54.494Z,98752.00
2022-08-23T18:40:21.494Z,98758.00
2022-08-23T18:42:54.500Z,98758.00
2022-08-23T18:45:21.714Z,98762.00
2022-08-23T18:47:48.831Z,98767.00
2022-08-23T18:50:22.529Z,98775.00
2022-08-23T18:52:49.399Z,98770.00
2022-08-23T18:55:22.510Z,98786.00
2022-08-23T18:57:49.382Z,98788.00
2022-08-23T19:00:16.339Z,98803.00
2022-08-23T19:02:49.509Z,98808.00
2022-08-23T19:05:16.620Z,98814.00
2022-08-23T19:07:49.541Z,98821.00
2022-08-23T19:10:20.292Z,98827.00
2022-08-23T19:12:54.636Z,98822.00
2022-08-23T19:15:21.823Z,98820.00
2022-08-23T19:17:55.530Z,98836.00
2022-08-23T19:20:22.789Z,98842.00
2022-08-23T19:22:56.566Z,98842.00
2022-08-23T19:25:23.782Z,98843.00
2022-08-23T19:27:57.546Z,98847.00
2022-08-23T19:30:24.554Z,98853.00
2022-08-23T19:33:02.678Z,98865.00
2022-08-23T19:35:29.764Z,98856.00
2022-08-23T19:38:04.541Z,98866.00
2022-08-23T19:40:31.537Z,98872.00
2022-08-23T19:43:04.715Z,98874.00
2022-08-23T19:45:32.436Z,98884.00
2022-08-23T19:48:06.620Z,98880.00
2022-08-23T19:50:33.657Z,98883.00
2022-08-23T19:53:06.657Z,98884.00
2022-08-23T19:55:40.543Z,98886.00
2022-08-23T19:58:07.869Z,98895.00
2022-08-23T20:00:41.622Z,98891.00
2022-08-23T20:03:08.554Z,98899.00
2022-08-23T20:05:35.433Z,98906.00
2022-08-23T20:08:09.585Z,98902.00
2022-08-23T20:10:36.516Z,98911.00
2022-08-23T20:13:09.604Z,98908.00
2022-08-23T20:15:39.025Z,98915.00
2022-08-23T20:18:12.596Z,98914.00
2022-08-23T20:20:47.594Z,98909.00
2022-08-23T20:23:14.487Z,98916.00
2022-08-23T20:25:47.600Z,98918.00
2022-08-23T20:28:14.499Z,98915.00
2022-08-23T20:30:47.579Z,98923.00
2022-08-23T20:33:14.578Z,98931.00
2022-08-23T20:35:47.590Z,98933.00
2022-08-23T20:38:33.359Z,98933.00
2022-08-23T20:41:01.012Z,98933.00
2022-08-23T20:43:36.574Z,98934.00
2022-08-23T20:46:03.543Z,98932.00
2022-08-23T20:48:31.075Z,98930.00
2022-08-23T20:51:08.626Z,98932.00
2022-08-23T20:53:38.343Z,98932.00
2022-08-23T20:56:12.592Z,98922.00
2022-08-23T20:58:39.491Z,98931.00
2022-08-23T21:01:13.759Z,98927.00
2022-08-23T21:03:40.939Z,98939.00
2022-08-23T21:06:20.958Z,98944.00
2022-08-23T21:08:50.311Z,98950.00
2022-08-23T21:11:27.602Z,98951.00
2022-08-23T21:13:55.267Z,98953.00
2022-08-23T21:16:22.350Z,98948.00
2022-08-23T21:18:55.688Z,98951.00
2022-08-23T21:21:30.630Z,98947.00
2022-08-23T21:24:03.654Z,98953.00
2022-08-23T21:26:30.525Z,98952.00
2022-08-23T21:29:03.617Z,98953.00
2022-08-23T21:31:30.533Z,98946.00
2022-08-23T21:34:03.638Z,98946.00
2022-08-23T21:36:30.537Z,98949.00
2022-08-23T21:39:03.623Z,98949.00
2022-08-23T21:41:45.627Z,98958.00
2022-08-23T21:44:19.224Z,98955.00
2022-08-23T21:46:52.637Z,98962.00
2022-08-23T21:49:19.558Z,98958.00
2022-08-23T21:51:46.466Z,98956.00
2022-08-23T21:54:20.652Z,98972.00
2022-08-23T21:56:47.663Z,98968.00
2022-08-23T21:59:23.648Z,98974.00
2022-08-23T22:01:50.803Z,98977.00
2022-08-23T22:04:24.653Z,98969.00
2022-08-23T22:06:51.676Z,98970.00
2022-08-23T22:09:31.463Z,98971.00
2022-08-23T22:11:58.808Z,98973.00
2022-08-23T22:14:32.648Z,98974.00
2022-08-23T22:16:59.883Z,98982.00
2022-08-23T22:19:33.699Z,98979.00
2022-08-23T22:22:00.619Z,98987.00
2022-08-23T22:24:33.678Z,98978.00
2022-08-23T22:27:00.599Z,98979.00
2022-08-23T22:29:33.668Z,98967.00
2022-08-23T22:32:00.531Z,98980.00
2022-08-23T22:34:33.643Z,98983.00
2022-08-23T22:37:06.711Z,98978.00
2022-08-23T22:39:33.633Z,98986.00
2022-08-23T22:42:06.746Z,98980.00
2022-08-23T22:44:36.901Z,98989.00
2022-08-23T22:47:10.678Z,98990.00
2022-08-23T22:49:41.570Z,98990.00
2022-08-23T22:52:08.496Z,98984.00
2022-08-23T22:54:41.711Z,98995.00
2022-08-23T22:57:14.690Z,98991.00
2022-08-23T22:59:47.681Z,98995.00
2022-08-23T23:02:17.294Z,98993.00
2022-08-23T23:04:52.876Z,98996.00
2022-08-23T23:07:19.833Z,98983.00
2022-08-23T23:09:52.694Z,98984.00
2022-08-23T23:12:19.583Z,98988.00
2022-08-23T23:14:52.693Z,98992.00
2022-08-23T23:17:25.716Z,98979.00
2022-08-23T23:19:53.311Z,98982.00
2022-08-23T23:22:20.178Z,98985.00
2022-08-23T23:24:53.699Z,98989.00
2022-08-23T23:27:20.564Z,98972.00
2022-08-23T23:29:53.756Z,98991.00
2022-08-23T23:32:20.631Z,98989.00
2022-08-23T23:35:01.704Z,98989.00
2022-08-23T23:37:28.546Z,98998.00
2022-08-23T23:40:03.634Z,98993.00
2022-08-23T23:42:30.847Z,98992.00
2022-08-23T23:45:04.732Z,98993.00
2022-08-23T23:47:31.668Z,99005.00
2022-08-23T23:49:58.539Z,98999.00
2022-08-23T23:52:31.716Z,99000.00
2022-08-23T23:55:04.740Z,99004.00
2022-08-23T23:57:44.733Z,99000.00
